Terminal Aerodrome Forecast
Issued by NWS

Home | Current Version | Previous Version | Text Only | Print | Product List | Glossary On
Versions: 1 2 3 4 5 6 7 8 9 10 11 12 13 14 15 16 17 18 19
000
FTUS43 KIND 280839 AAB
TAFBMG
TAF AMD
KBMG 280839Z 2809/2906 00000KT 2SM BR SCT250
      TEMPO 2809/2812 1SM BR BKN030
     FM281330 11005KT P6SM SCT025 BKN250
     FM281800 11005KT P6SM VCTS SCT030CB BKN250
     FM290200 04004KT P6SM BKN250
      AMD LTD TO CLD VIS AND WIND TIL 281300=

USA.gov is the U.S. government's official web portal to all federal, state and local government web resources and services.